sensor_id;sensor_type;location;lat;lon;timestamp;temperature;humidity
32614;DHT22;19031;51.400;6.770;2022-11-20T00:02:19;-0.50;99.90
32614;DHT22;19031;51.400;6.770;2022-11-20T00:04:45;-0.60;99.90
32614;DHT22;19031;51.400;6.770;2022-11-20T00:07:10;-0.50;99.90
32614;DHT22;19031;51.400;6.770;2022-11-20T00:09:36;-0.60;99.90
32614;DHT22;19031;51.400;6.770;2022-11-20T00:12:01;-0.60;99.90
32614;DHT22;19031;51.400;6.770;2022-11-20T00:14:27;-0.60;99.90
32614;DHT22;19031;51.400;6.770;2022-11-20T00:16:53;-0.60;99.90
32614;DHT22;19031;51.400;6.770;2022-11-20T00:19:18;-0.60;99.90
32614;DHT22;19031;51.400;6.770;2022-11-20T00:21:44;-0.60;99.90
32614;DHT22;19031;51.400;6.770;2022-11-20T00:24:09;-0.60;99.90
32614;DHT22;19031;51.400;6.770;2022-11-20T00:26:36;-0.60;99.90
32614;DHT22;19031;51.400;6.770;2022-11-20T00:29:04;-0.60;99.90
32614;DHT22;19031;51.400;6.770;2022-11-20T00:31:30;-0.60;99.90
32614;DHT22;19031;51.400;6.770;2022-11-20T00:33:56;-0.50;99.90
32614;DHT22;19031;51.400;6.770;2022-11-20T00:36:22;-0.50;99.90
32614;DHT22;19031;51.400;6.770;2022-11-20T00:38:51;-0.60;99.90
32614;DHT22;19031;51.400;6.770;2022-11-20T00:41:17;-0.50;99.90
32614;DHT22;19031;51.400;6.770;2022-11-20T00:43:43;-0.50;99.90
32614;DHT22;19031;51.400;6.770;2022-11-20T00:46:16;-0.40;99.90
32614;DHT22;19031;51.400;6.770;2022-11-20T00:48:41;-0.40;99.90
32614;DHT22;19031;51.400;6.770;2022-11-20T00:51:07;-0.30;99.90
32614;DHT22;19031;51.400;6.770;2022-11-20T00:53:32;-0.20;99.90
32614;DHT22;19031;51.400;6.770;2022-11-20T00:55:59;-0.20;99.90
32614;DHT22;19031;51.400;6.770;2022-11-20T00:58:27;-0.10;99.90
32614;DHT22;19031;51.400;6.770;2022-11-20T01:00:54;-0.10;99.90
32614;DHT22;19031;51.400;6.770;2022-11-20T01:03:24;0.00;99.90
32614;DHT22;19031;51.400;6.770;2022-11-20T01:05:49;0.10;99.90
32614;DHT22;19031;51.400;6.770;2022-11-20T01:08:15;0.20;99.90
32614;DHT22;19031;51.400;6.770;2022-11-20T01:10:40;0.20;99.90
32614;DHT22;19031;51.400;6.770;2022-11-20T01:13:06;0.20;99.90
32614;DHT22;19031;51.400;6.770;2022-11-20T01:15:50;0.30;99.90
32614;DHT22;19031;51.400;6.770;2022-11-20T01:18:15;0.40;99.90
32614;DHT22;19031;51.400;6.770;2022-11-20T01:20:41;0.40;99.90
32614;DHT22;19031;51.400;6.770;2022-11-20T01:23:06;0.40;99.90
32614;DHT22;19031;51.400;6.770;2022-11-20T01:25:32;0.60;99.90
32614;DHT22;19031;51.400;6.770;2022-11-20T01:27:59;0.60;99.90
32614;DHT22;19031;51.400;6.770;2022-11-20T01:30:24;0.60;99.90
32614;DHT22;19031;51.400;6.770;2022-11-20T01:32:50;0.50;99.90
32614;DHT22;19031;51.400;6.770;2022-11-20T01:35:16;0.60;99.90
32614;DHT22;19031;51.400;6.770;2022-11-20T01:37:41;0.60;99.90
32614;DHT22;19031;51.400;6.770;2022-11-20T01:40:07;0.60;99.90
32614;DHT22;19031;51.400;6.770;2022-11-20T01:42:33;0.70;99.90
32614;DHT22;19031;51.400;6.770;2022-11-20T01:48:25;0.80;99.90
32614;DHT22;19031;51.400;6.770;2022-11-20T01:50:54;0.90;99.90
32614;DHT22;19031;51.400;6.770;2022-11-20T01:53:21;1.00;99.90
32614;DHT22;19031;51.400;6.770;2022-11-20T01:55:50;1.00;99.90
32614;DHT22;19031;51.400;6.770;2022-11-20T01:58:16;1.00;99.90
32614;DHT22;19031;51.400;6.770;2022-11-20T02:00:44;1.10;99.90
32614;DHT22;19031;51.400;6.770;2022-11-20T02:03:11;1.20;99.90
32614;DHT22;19031;51.400;6.770;2022-11-20T02:08:20;1.20;99.90
32614;DHT22;19031;51.400;6.770;2022-11-20T02:10:50;1.20;99.90
32614;DHT22;19031;51.400;6.770;2022-11-20T02:13:15;1.20;99.90
32614;DHT22;19031;51.400;6.770;2022-11-20T02:15:59;1.30;99.90
32614;DHT22;19031;51.400;6.770;2022-11-20T02:18:25;1.10;99.90
32614;DHT22;19031;51.400;6.770;2022-11-20T02:20:53;1.30;99.90
32614;DHT22;19031;51.400;6.770;2022-11-20T02:23:28;1.30;99.90
32614;DHT22;19031;51.400;6.770;2022-11-20T02:25:57;1.40;99.90
32614;DHT22;19031;51.400;6.770;2022-11-20T02:28:23;1.40;99.90
32614;DHT22;19031;51.400;6.770;2022-11-20T02:30:49;1.50;99.90
32614;DHT22;19031;51.400;6.770;2022-11-20T02:33:14;1.50;99.90
32614;DHT22;19031;51.400;6.770;2022-11-20T02:35:44;1.50;99.90
32614;DHT22;19031;51.400;6.770;2022-11-20T02:38:10;1.60;99.90
32614;DHT22;19031;51.400;6.770;2022-11-20T02:40:35;1.60;99.90
32614;DHT22;19031;51.400;6.770;2022-11-20T02:43:01;1.50;99.90
32614;DHT22;19031;51.400;6.770;2022-11-20T02:45:26;1.60;99.90
32614;DHT22;19031;51.400;6.770;2022-11-20T02:47:52;1.60;99.90
32614;DHT22;19031;51.400;6.770;2022-11-20T02:50:18;1.50;99.90
32614;DHT22;19031;51.400;6.770;2022-11-20T02:52:43;1.60;99.90
32614;DHT22;19031;51.400;6.770;2022-11-20T02:55:09;1.60;99.90
32614;DHT22;19031;51.400;6.770;2022-11-20T02:57:34;1.60;99.90
32614;DHT22;19031;51.400;6.770;2022-11-20T03:00:00;1.70;99.90
32614;DHT22;19031;51.400;6.770;2022-11-20T03:02:25;1.70;99.90
32614;DHT22;19031;51.400;6.770;2022-11-20T03:04:51;1.70;99.90
32614;DHT22;19031;51.400;6.770;2022-11-20T03:07:16;1.70;99.90
32614;DHT22;19031;51.400;6.770;2022-11-20T03:09:42;1.80;99.90
32614;DHT22;19031;51.400;6.770;2022-11-20T03:12:07;1.80;99.90
32614;DHT22;19031;51.400;6.770;2022-11-20T03:14:34;1.80;99.90
32614;DHT22;19031;51.400;6.770;2022-11-20T03:16:59;1.80;99.90
32614;DHT22;19031;51.400;6.770;2022-11-20T03:19:25;1.90;99.90
32614;DHT22;19031;51.400;6.770;2022-11-20T03:21:50;1.80;99.90
32614;DHT22;19031;51.400;6.770;2022-11-20T03:24:16;1.70;99.90
32614;DHT22;19031;51.400;6.770;2022-11-20T03:26:41;1.80;99.90
32614;DHT22;19031;51.400;6.770;2022-11-20T03:29:06;1.80;99.90
32614;DHT22;19031;51.400;6.770;2022-11-20T03:31:34;1.90;99.90
32614;DHT22;19031;51.400;6.770;2022-11-20T03:33:59;2.00;99.90
32614;DHT22;19031;51.400;6.770;2022-11-20T03:36:26;2.00;99.90
32614;DHT22;19031;51.400;6.770;2022-11-20T03:38:52;2.00;99.90
32614;DHT22;19031;51.400;6.770;2022-11-20T03:41:19;2.00;99.90
32614;DHT22;19031;51.400;6.770;2022-11-20T03:43:48;2.00;99.90
32614;DHT22;19031;51.400;6.770;2022-11-20T03:46:14;2.00;99.90
32614;DHT22;19031;51.400;6.770;2022-11-20T03:48:39;2.10;99.90
32614;DHT22;19031;51.400;6.770;2022-11-20T03:51:12;2.20;99.90
32614;DHT22;19031;51.400;6.770;2022-11-20T03:53:38;2.10;99.90
32614;DHT22;19031;51.400;6.770;2022-11-20T03:56:03;2.30;99.90
32614;DHT22;19031;51.400;6.770;2022-11-20T03:58:29;2.20;99.90
32614;DHT22;19031;51.400;6.770;2022-11-20T04:00:54;2.10;99.90
32614;DHT22;19031;51.400;6.770;2022-11-20T04:03:20;2.10;99.90
32614;DHT22;19031;51.400;6.770;2022-11-20T04:05:45;2.10;99.90
32614;DHT22;19031;51.400;6.770;2022-11-20T04:08:11;2.10;99.90
32614;DHT22;19031;51.400;6.770;2022-11-20T04:10:36;2.10;99.90
32614;DHT22;19031;51.400;6.770;2022-11-20T04:13:02;2.20;99.90
32614;DHT22;19031;51.400;6.770;2022-11-20T04:15:28;2.30;99.90
32614;DHT22;19031;51.400;6.770;2022-11-20T04:17:53;2.30;99.90
32614;DHT22;19031;51.400;6.770;2022-11-20T04:20:19;2.30;99.90
32614;DHT22;19031;51.400;6.770;2022-11-20T04:22:44;2.40;99.90
32614;DHT22;19031;51.400;6.770;2022-11-20T04:25:10;2.40;99.90
32614;DHT22;19031;51.400;6.770;2022-11-20T04:27:35;2.50;99.90
32614;DHT22;19031;51.400;6.770;2022-11-20T04:30:01;2.50;99.90
32614;DHT22;19031;51.400;6.770;2022-11-20T04:32:26;2.50;99.90
32614;DHT22;19031;51.400;6.770;2022-11-20T04:34:52;2.50;99.90
32614;DHT22;19031;51.400;6.770;2022-11-20T04:37:18;2.50;99.90
32614;DHT22;19031;51.400;6.770;2022-11-20T04:39:44;2.50;99.90
32614;DHT22;19031;51.400;6.770;2022-11-20T04:42:09;2.50;99.90
32614;DHT22;19031;51.400;6.770;2022-11-20T04:44:54;2.50;99.90
32614;DHT22;19031;51.400;6.770;2022-11-20T04:47:19;2.60;99.90
32614;DHT22;19031;51.400;6.770;2022-11-20T04:49:45;2.60;99.90
32614;DHT22;19031;51.400;6.770;2022-11-20T04:52:10;2.70;99.90
32614;DHT22;19031;51.400;6.770;2022-11-20T04:54:36;2.70;99.90
32614;DHT22;19031;51.400;6.770;2022-11-20T04:57:01;2.70;99.90
32614;DHT22;19031;51.400;6.770;2022-11-20T04:59:27;2.70;99.90
32614;DHT22;19031;51.400;6.770;2022-11-20T05:01:52;2.70;99.90
32614;DHT22;19031;51.400;6.770;2022-11-20T05:04:18;2.70;99.90
32614;DHT22;19031;51.400;6.770;2022-11-20T05:06:43;2.60;99.90
32614;DHT22;19031;51.400;6.770;2022-11-20T05:09:11;2.70;99.90
32614;DHT22;19031;51.400;6.770;2022-11-20T05:11:36;2.70;99.90
32614;DHT22;19031;51.400;6.770;2022-11-20T05:14:02;2.60;99.90
32614;DHT22;19031;51.400;6.770;2022-11-20T05:16:27;2.70;99.90
32614;DHT22;19031;51.400;6.770;2022-11-20T05:18:53;2.60;99.90
32614;DHT22;19031;51.400;6.770;2022-11-20T05:21:19;2.60;99.90
32614;DHT22;19031;51.400;6.770;2022-11-20T05:23:45;2.60;99.90
32614;DHT22;19031;51.400;6.770;2022-11-20T05:26:15;2.60;99.90
32614;DHT22;19031;51.400;6.770;2022-11-20T05:28:40;2.60;99.90
32614;DHT22;19031;51.400;6.770;2022-11-20T05:31:07;2.60;99.90
32614;DHT22;19031;51.400;6.770;2022-11-20T05:33:33;2.60;99.90
32614;DHT22;19031;51.400;6.770;2022-11-20T05:35:59;2.70;99.90
32614;DHT22;19031;51.400;6.770;2022-11-20T05:38:24;2.80;99.90
32614;DHT22;19031;51.400;6.770;2022-11-20T05:40:50;2.80;99.90
32614;DHT22;19031;51.400;6.770;2022-11-20T05:43:15;2.80;99.90
32614;DHT22;19031;51.400;6.770;2022-11-20T05:45:41;2.90;99.90
32614;DHT22;19031;51.400;6.770;2022-11-20T05:48:06;3.00;99.90
32614;DHT22;19031;51.400;6.770;2022-11-20T05:50:32;3.00;99.90
32614;DHT22;19031;51.400;6.770;2022-11-20T05:52:58;3.00;99.90
32614;DHT22;19031;51.400;6.770;2022-11-20T05:55:24;3.00;99.90
32614;DHT22;19031;51.400;6.770;2022-11-20T05:57:50;3.00;99.90
32614;DHT22;19031;51.400;6.770;2022-11-20T06:00:15;3.10;99.90
32614;DHT22;19031;51.400;6.770;2022-11-20T06:02:41;3.10;99.90
32614;DHT22;19031;51.400;6.770;2022-11-20T06:05:06;3.10;99.90
32614;DHT22;19031;51.400;6.770;2022-11-20T06:07:32;3.20;99.90
32614;DHT22;19031;51.400;6.770;2022-11-20T06:09:57;3.20;99.90
32614;DHT22;19031;51.400;6.770;2022-11-20T06:12:23;3.20;99.90
32614;DHT22;19031;51.400;6.770;2022-11-20T06:14:48;3.10;99.90
32614;DHT22;19031;51.400;6.770;2022-11-20T06:17:13;3.20;99.90
32614;DHT22;19031;51.400;6.770;2022-11-20T06:19:39;3.20;99.90
32614;DHT22;19031;51.400;6.770;2022-11-20T06:22:04;3.20;99.90
32614;DHT22;19031;51.400;6.770;2022-11-20T06:24:30;3.10;99.90
32614;DHT22;19031;51.400;6.770;2022-11-20T06:26:55;3.10;99.90
32614;DHT22;19031;51.400;6.770;2022-11-20T06:29:21;3.20;99.90
32614;DHT22;19031;51.400;6.770;2022-11-20T06:31:46;3.10;99.90
32614;DHT22;19031;51.400;6.770;2022-11-20T06:34:12;3.20;99.90
32614;DHT22;19031;51.400;6.770;2022-11-20T06:36:37;3.20;99.90
32614;DHT22;19031;51.400;6.770;2022-11-20T06:39:03;3.10;99.90
32614;DHT22;19031;51.400;6.770;2022-11-20T06:41:28;3.20;99.90
32614;DHT22;19031;51.400;6.770;2022-11-20T06:43:54;3.10;99.90
32614;DHT22;19031;51.400;6.770;2022-11-20T06:46:20;3.10;99.90
32614;DHT22;19031;51.400;6.770;2022-11-20T06:48:46;3.20;99.90
32614;DHT22;19031;51.400;6.770;2022-11-20T06:51:11;3.10;99.90
32614;DHT22;19031;51.400;6.770;2022-11-20T06:53:37;3.00;99.90
32614;DHT22;19031;51.400;6.770;2022-11-20T06:56:03;3.10;99.90
32614;DHT22;19031;51.400;6.770;2022-11-20T06:58:29;3.10;99.90
32614;DHT22;19031;51.400;6.770;2022-11-20T07:00:58;3.10;99.90
32614;DHT22;19031;51.400;6.770;2022-11-20T07:03:24;3.10;99.90
32614;DHT22;19031;51.400;6.770;2022-11-20T07:05:49;3.20;99.90
32614;DHT22;19031;51.400;6.770;2022-11-20T07:08:15;3.10;99.90
32614;DHT22;19031;51.400;6.770;2022-11-20T07:10:40;3.10;99.90
32614;DHT22;19031;51.400;6.770;2022-11-20T07:13:06;3.00;99.90
32614;DHT22;19031;51.400;6.770;2022-11-20T07:15:32;3.10;99.90
32614;DHT22;19031;51.400;6.770;2022-11-20T07:17:58;3.10;99.90
32614;DHT22;19031;51.400;6.770;2022-11-20T07:20:24;3.20;99.90
32614;DHT22;19031;51.400;6.770;2022-11-20T07:22:53;3.20;99.90
32614;DHT22;19031;51.400;6.770;2022-11-20T07:25:18;3.10;99.90
32614;DHT22;19031;51.400;6.770;2022-11-20T07:27:44;3.10;99.90
32614;DHT22;19031;51.400;6.770;2022-11-20T07:30:09;3.10;99.90
32614;DHT22;19031;51.400;6.770;2022-11-20T07:32:35;3.20;99.90
32614;DHT22;19031;51.400;6.770;2022-11-20T07:35:00;3.20;99.90
32614;DHT22;19031;51.400;6.770;2022-11-20T07:37:26;3.30;99.90
32614;DHT22;19031;51.400;6.770;2022-11-20T07:39:51;3.30;99.90
32614;DHT22;19031;51.400;6.770;2022-11-20T07:42:17;3.40;99.90
32614;DHT22;19031;51.400;6.770;2022-11-20T07:44:42;3.30;99.90
32614;DHT22;19031;51.400;6.770;2022-11-20T07:47:08;3.40;99.90
32614;DHT22;19031;51.400;6.770;2022-11-20T07:49:33;3.40;99.90
32614;DHT22;19031;51.400;6.770;2022-11-20T07:51:59;3.50;99.90
32614;DHT22;19031;51.400;6.770;2022-11-20T07:54:24;3.50;99.90
32614;DHT22;19031;51.400;6.770;2022-11-20T07:56:49;3.50;99.90
32614;DHT22;19031;51.400;6.770;2022-11-20T07:59:15;3.50;99.90
32614;DHT22;19031;51.400;6.770;2022-11-20T08:01:41;3.60;99.90
32614;DHT22;19031;51.400;6.770;2022-11-20T08:04:07;3.50;99.90
32614;DHT22;19031;51.400;6.770;2022-11-20T08:06:32;3.60;99.90
32614;DHT22;19031;51.400;6.770;2022-11-20T08:08:58;3.50;99.90
32614;DHT22;19031;51.400;6.770;2022-11-20T08:11:23;3.60;99.90
32614;DHT22;19031;51.400;6.770;2022-11-20T08:14:08;3.60;99.90
32614;DHT22;19031;51.400;6.770;2022-11-20T08:16:43;3.60;99.90
32614;DHT22;19031;51.400;6.770;2022-11-20T08:19:09;3.70;99.90
32614;DHT22;19031;51.400;6.770;2022-11-20T08:21:35;3.80;99.90
32614;DHT22;19031;51.400;6.770;2022-11-20T08:24:00;3.70;99.90
32614;DHT22;19031;51.400;6.770;2022-11-20T08:26:26;3.70;99.90
32614;DHT22;19031;51.400;6.770;2022-11-20T08:28:57;3.80;99.90
32614;DHT22;19031;51.400;6.770;2022-11-20T08:31:24;4.00;99.90
32614;DHT22;19031;51.400;6.770;2022-11-20T08:33:49;3.90;99.90
32614;DHT22;19031;51.400;6.770;2022-11-20T08:36:15;3.90;99.90
32614;DHT22;19031;51.400;6.770;2022-11-20T08:38:41;4.00;99.90
32614;DHT22;19031;51.400;6.770;2022-11-20T08:41:06;4.20;99.90
32614;DHT22;19031;51.400;6.770;2022-11-20T08:43:52;4.30;99.90
32614;DHT22;19031;51.400;6.770;2022-11-20T08:46:18;4.30;99.90
32614;DHT22;19031;51.400;6.770;2022-11-20T08:48:43;4.40;99.90
32614;DHT22;19031;51.400;6.770;2022-11-20T08:51:09;4.30;99.90
32614;DHT22;19031;51.400;6.770;2022-11-20T08:53:35;4.50;99.90
32614;DHT22;19031;51.400;6.770;2022-11-20T08:56:01;4.60;99.90
32614;DHT22;19031;51.400;6.770;2022-11-20T08:58:26;4.70;99.90
32614;DHT22;19031;51.400;6.770;2022-11-20T09:00:52;4.70;99.90
32614;DHT22;19031;51.400;6.770;2022-11-20T09:03:18;4.80;99.90
32614;DHT22;19031;51.400;6.770;2022-11-20T09:05:46;4.80;99.90
32614;DHT22;19031;51.400;6.770;2022-11-20T09:08:11;4.80;99.90
32614;DHT22;19031;51.400;6.770;2022-11-20T09:10:37;4.80;99.90
32614;DHT22;19031;51.400;6.770;2022-11-20T09:13:05;4.70;99.90
32614;DHT22;19031;51.400;6.770;2022-11-20T09:15:30;4.80;99.90
32614;DHT22;19031;51.400;6.770;2022-11-20T09:17:57;4.70;99.90
32614;DHT22;19031;51.400;6.770;2022-11-20T09:20:23;4.70;99.90
32614;DHT22;19031;51.400;6.770;2022-11-20T09:22:51;4.60;99.90
32614;DHT22;19031;51.400;6.770;2022-11-20T09:25:17;4.70;99.90
32614;DHT22;19031;51.400;6.770;2022-11-20T09:27:43;4.50;99.90
32614;DHT22;19031;51.400;6.770;2022-11-20T09:30:11;4.50;99.90
32614;DHT22;19031;51.400;6.770;2022-11-20T09:32:38;4.50;99.90
32614;DHT22;19031;51.400;6.770;2022-11-20T09:35:04;4.50;99.90
32614;DHT22;19031;51.400;6.770;2022-11-20T09:37:29;4.70;99.90
32614;DHT22;19031;51.400;6.770;2022-11-20T09:39:54;4.60;99.90
32614;DHT22;19031;51.400;6.770;2022-11-20T09:42:27;4.60;99.90
32614;DHT22;19031;51.400;6.770;2022-11-20T09:45:00;4.60;99.90
32614;DHT22;19031;51.400;6.770;2022-11-20T09:47:33;4.60;99.90
32614;DHT22;19031;51.400;6.770;2022-11-20T09:50:19;4.60;99.90
32614;DHT22;19031;51.400;6.770;2022-11-20T09:55:31;4.70;99.90
32614;DHT22;19031;51.400;6.770;2022-11-20T09:57:56;4.80;99.90
32614;DHT22;19031;51.400;6.770;2022-11-20T10:00:22;4.80;99.90
32614;DHT22;19031;51.400;6.770;2022-11-20T10:02:52;5.00;99.90
32614;DHT22;19031;51.400;6.770;2022-11-20T10:05:23;5.10;99.90
32614;DHT22;19031;51.400;6.770;2022-11-20T10:07:55;5.20;99.90
32614;DHT22;19031;51.400;6.770;2022-11-20T10:15:22;5.30;99.90
32614;DHT22;19031;51.400;6.770;2022-11-20T10:18:15;5.40;99.90
32614;DHT22;19031;51.400;6.770;2022-11-20T10:23:43;5.60;99.90
32614;DHT22;19031;51.400;6.770;2022-11-20T10:34:25;5.90;99.90
32614;DHT22;19031;51.400;6.770;2022-11-20T10:36:54;5.90;99.90
32614;DHT22;19031;51.400;6.770;2022-11-20T10:41:48;6.00;99.90
32614;DHT22;19031;51.400;6.770;2022-11-20T10:44:19;6.10;99.90
32614;DHT22;19031;51.400;6.770;2022-11-20T10:47:05;6.10;99.90
32614;DHT22;19031;51.400;6.770;2022-11-20T10:49:31;6.00;99.90
32614;DHT22;19031;51.400;6.770;2022-11-20T10:54:36;6.20;99.90
32614;DHT22;19031;51.400;6.770;2022-11-20T10:57:05;6.20;99.90
32614;DHT22;19031;51.400;6.770;2022-11-20T11:02:01;6.40;99.90
32614;DHT22;19031;51.400;6.770;2022-11-20T11:05:00;6.30;99.90
32614;DHT22;19031;51.400;6.770;2022-11-20T11:07:27;6.50;99.90
32614;DHT22;19031;51.400;6.770;2022-11-20T11:09:55;6.40;99.90
32614;DHT22;19031;51.400;6.770;2022-11-20T11:12:21;6.40;99.90
32614;DHT22;19031;51.400;6.770;2022-11-20T11:14:51;6.40;99.90
32614;DHT22;19031;51.400;6.770;2022-11-20T11:17:24;6.40;99.90
32614;DHT22;19031;51.400;6.770;2022-11-20T11:20:15;6.40;99.90
32614;DHT22;19031;51.400;6.770;2022-11-20T11:22:43;6.30;99.90
32614;DHT22;19031;51.400;6.770;2022-11-20T11:25:18;6.20;99.90
32614;DHT22;19031;51.400;6.770;2022-11-20T11:27:48;6.30;99.90
32614;DHT22;19031;51.400;6.770;2022-11-20T11:30:14;6.30;99.90
32614;DHT22;19031;51.400;6.770;2022-11-20T11:32:40;6.20;99.90
32614;DHT22;19031;51.400;6.770;2022-11-20T11:35:11;6.30;99.90
32614;DHT22;19031;51.400;6.770;2022-11-20T11:37:43;6.40;99.90
32614;DHT22;19031;51.400;6.770;2022-11-20T11:40:10;6.40;99.90
32614;DHT22;19031;51.400;6.770;2022-11-20T11:42:41;6.40;99.90
32614;DHT22;19031;51.400;6.770;2022-11-20T11:45:06;6.40;99.90
32614;DHT22;19031;51.400;6.770;2022-11-20T11:52:50;6.40;99.90
32614;DHT22;19031;51.400;6.770;2022-11-20T11:55:27;6.50;99.90
32614;DHT22;19031;51.400;6.770;2022-11-20T11:57:55;6.30;99.90
32614;DHT22;19031;51.400;6.770;2022-11-20T12:00:23;6.40;99.90
32614;DHT22;19031;51.400;6.770;2022-11-20T12:05:47;6.20;99.90
32614;DHT22;19031;51.400;6.770;2022-11-20T12:08:23;6.30;99.90
32614;DHT22;19031;51.400;6.770;2022-11-20T12:11:04;6.30;99.90
32614;DHT22;19031;51.400;6.770;2022-11-20T12:15:55;6.20;99.90
32614;DHT22;19031;51.400;6.770;2022-11-20T12:18:21;6.30;99.90
32614;DHT22;19031;51.400;6.770;2022-11-20T12:29:00;6.50;99.90
32614;DHT22;19031;51.400;6.770;2022-11-20T12:31:41;6.40;99.90
32614;DHT22;19031;51.400;6.770;2022-11-20T12:36:56;6.40;99.90
32614;DHT22;19031;51.400;6.770;2022-11-20T12:42:02;6.30;99.90
32614;DHT22;19031;51.400;6.770;2022-11-20T12:47:39;6.30;99.90
32614;DHT22;19031;51.400;6.770;2022-11-20T12:52:52;6.40;99.90
32614;DHT22;19031;51.400;6.770;2022-11-20T13:00:30;6.40;99.90
32614;DHT22;19031;51.400;6.770;2022-11-20T13:07:58;6.40;99.90
32614;DHT22;19031;51.400;6.770;2022-11-20T13:12:56;6.40;99.90
32614;DHT22;19031;51.400;6.770;2022-11-20T13:18:00;6.20;99.90
32614;DHT22;19031;51.400;6.770;2022-11-20T13:20:26;6.30;99.90
32614;DHT22;19031;51.400;6.770;2022-11-20T13:22:53;6.10;99.90
32614;DHT22;19031;51.400;6.770;2022-11-20T13:27:48;6.20;99.90
32614;DHT22;19031;51.400;6.770;2022-11-20T13:30:18;6.20;99.90
32614;DHT22;19031;51.400;6.770;2022-11-20T13:32:48;6.10;99.90
32614;DHT22;19031;51.400;6.770;2022-11-20T13:35:23;6.10;99.90
32614;DHT22;19031;51.400;6.770;2022-11-20T13:37:49;6.00;99.90
32614;DHT22;19031;51.400;6.770;2022-11-20T13:40:24;5.90;99.90
32614;DHT22;19031;51.400;6.770;2022-11-20T13:43:00;6.00;99.90
32614;DHT22;19031;51.400;6.770;2022-11-20T13:45:29;6.10;99.90
32614;DHT22;19031;51.400;6.770;2022-11-20T13:47:56;6.00;99.90
32614;DHT22;19031;51.400;6.770;2022-11-20T13:50:28;6.00;99.90
32614;DHT22;19031;51.400;6.770;2022-11-20T13:55:38;6.00;99.90
32614;DHT22;19031;51.400;6.770;2022-11-20T14:00:31;6.00;99.90
32614;DHT22;19031;51.400;6.770;2022-11-20T14:05:32;5.90;99.90
32614;DHT22;19031;51.400;6.770;2022-11-20T14:07:59;6.10;99.90
32614;DHT22;19031;51.400;6.770;2022-11-20T14:10:28;6.00;99.90
32614;DHT22;19031;51.400;6.770;2022-11-20T14:12:54;6.00;99.90
32614;DHT22;19031;51.400;6.770;2022-11-20T14:15:30;5.90;99.90
32614;DHT22;19031;51.400;6.770;2022-11-20T14:17:56;6.00;99.90
32614;DHT22;19031;51.400;6.770;2022-11-20T14:20:23;5.90;99.90
32614;DHT22;19031;51.400;6.770;2022-11-20T14:22:50;6.00;99.90
32614;DHT22;19031;51.400;6.770;2022-11-20T14:25:20;6.00;99.90
32614;DHT22;19031;51.400;6.770;2022-11-20T14:27:56;6.00;99.90
32614;DHT22;19031;51.400;6.770;2022-11-20T14:30:23;6.00;99.90
32614;DHT22;19031;51.400;6.770;2022-11-20T14:32:49;6.00;99.90
32614;DHT22;19031;51.400;6.770;2022-11-20T14:35:34;6.00;99.90
32614;DHT22;19031;51.400;6.770;2022-11-20T14:38:00;6.10;99.90
32614;DHT22;19031;51.400;6.770;2022-11-20T14:40:30;6.00;99.90
32614;DHT22;19031;51.400;6.770;2022-11-20T14:42:56;6.00;99.90
32614;DHT22;19031;51.400;6.770;2022-11-20T14:45:22;5.90;99.90
32614;DHT22;19031;51.400;6.770;2022-11-20T14:47:48;5.90;99.90
32614;DHT22;19031;51.400;6.770;2022-11-20T14:50:16;5.90;99.90
32614;DHT22;19031;51.400;6.770;2022-11-20T14:52:49;5.80;99.90
32614;DHT22;19031;51.400;6.770;2022-11-20T14:55:24;5.90;99.90
32614;DHT22;19031;51.400;6.770;2022-11-20T14:57:54;5.90;99.90
32614;DHT22;19031;51.400;6.770;2022-11-20T15:00:20;5.90;99.90
32614;DHT22;19031;51.400;6.770;2022-11-20T15:02:47;5.80;99.90
32614;DHT22;19031;51.400;6.770;2022-11-20T15:05:13;5.90;99.90
32614;DHT22;19031;51.400;6.770;2022-11-20T15:07:43;5.90;99.90
32614;DHT22;19031;51.400;6.770;2022-11-20T15:12:47;6.00;99.90
32614;DHT22;19031;51.400;6.770;2022-11-20T15:15:17;5.90;99.90
32614;DHT22;19031;51.400;6.770;2022-11-20T15:17:44;5.90;99.90
32614;DHT22;19031;51.400;6.770;2022-11-20T15:20:17;6.00;99.90
32614;DHT22;19031;51.400;6.770;2022-11-20T15:22:45;6.00;99.90
32614;DHT22;19031;51.400;6.770;2022-11-20T15:25:14;6.00;99.90
32614;DHT22;19031;51.400;6.770;2022-11-20T15:27:41;6.00;99.90
32614;DHT22;19031;51.400;6.770;2022-11-20T15:30:17;5.90;99.90
32614;DHT22;19031;51.400;6.770;2022-11-20T15:32:43;5.90;99.90
32614;DHT22;19031;51.400;6.770;2022-11-20T15:35:10;5.90;99.90
32614;DHT22;19031;51.400;6.770;2022-11-20T15:37:38;5.80;99.90
32614;DHT22;19031;51.400;6.770;2022-11-20T15:40:04;5.80;99.90
32614;DHT22;19031;51.400;6.770;2022-11-20T15:42:30;5.90;99.90
32614;DHT22;19031;51.400;6.770;2022-11-20T15:44:56;5.80;99.90
32614;DHT22;19031;51.400;6.770;2022-11-20T15:47:23;5.80;99.90
32614;DHT22;19031;51.400;6.770;2022-11-20T15:49:50;5.90;99.90
32614;DHT22;19031;51.400;6.770;2022-11-20T15:52:15;5.90;99.90
32614;DHT22;19031;51.400;6.770;2022-11-20T15:54:41;5.80;99.90
32614;DHT22;19031;51.400;6.770;2022-11-20T15:57:07;5.90;99.90
32614;DHT22;19031;51.400;6.770;2022-11-20T15:59:32;5.90;99.90
32614;DHT22;19031;51.400;6.770;2022-11-20T16:01:58;5.90;99.90
32614;DHT22;19031;51.400;6.770;2022-11-20T16:04:23;5.80;99.90
32614;DHT22;19031;51.400;6.770;2022-11-20T16:06:49;5.80;99.90
32614;DHT22;19031;51.400;6.770;2022-11-20T16:09:14;5.80;99.90
32614;DHT22;19031;51.400;6.770;2022-11-20T16:11:40;5.80;99.90
32614;DHT22;19031;51.400;6.770;2022-11-20T16:14:05;5.70;99.90
32614;DHT22;19031;51.400;6.770;2022-11-20T16:16:50;5.80;99.90
32614;DHT22;19031;51.400;6.770;2022-11-20T16:19:16;5.80;99.90
32614;DHT22;19031;51.400;6.770;2022-11-20T16:21:43;5.90;99.90
32614;DHT22;19031;51.400;6.770;2022-11-20T16:24:09;5.80;99.90
32614;DHT22;19031;51.400;6.770;2022-11-20T16:26:36;5.80;99.90
32614;DHT22;19031;51.400;6.770;2022-11-20T16:29:02;5.90;99.90
32614;DHT22;19031;51.400;6.770;2022-11-20T16:31:28;5.90;99.90
32614;DHT22;19031;51.400;6.770;2022-11-20T16:33:59;5.90;99.90
32614;DHT22;19031;51.400;6.770;2022-11-20T16:36:25;5.90;99.90
32614;DHT22;19031;51.400;6.770;2022-11-20T16:38:54;5.90;99.90
32614;DHT22;19031;51.400;6.770;2022-11-20T16:41:21;5.80;99.90
32614;DHT22;19031;51.400;6.770;2022-11-20T16:43:47;5.70;99.90
32614;DHT22;19031;51.400;6.770;2022-11-20T16:46:14;5.80;99.90
32614;DHT22;19031;51.400;6.770;2022-11-20T16:48:39;5.70;99.90
32614;DHT22;19031;51.400;6.770;2022-11-20T16:51:07;5.70;99.90
32614;DHT22;19031;51.400;6.770;2022-11-20T16:53:32;5.80;99.90
32614;DHT22;19031;51.400;6.770;2022-11-20T16:56:07;5.70;99.90
32614;DHT22;19031;51.400;6.770;2022-11-20T16:58:32;5.70;99.90
32614;DHT22;19031;51.400;6.770;2022-11-20T17:01:04;5.70;99.90
32614;DHT22;19031;51.400;6.770;2022-11-20T17:03:29;5.70;99.90
32614;DHT22;19031;51.400;6.770;2022-11-20T17:05:55;5.70;99.90
32614;DHT22;19031;51.400;6.770;2022-11-20T17:08:20;5.70;99.90
32614;DHT22;19031;51.400;6.770;2022-11-20T17:10:45;5.70;99.90
32614;DHT22;19031;51.400;6.770;2022-11-20T17:13:11;5.70;99.90
32614;DHT22;19031;51.400;6.770;2022-11-20T17:15:36;5.70;99.90
32614;DHT22;19031;51.400;6.770;2022-11-20T17:18:02;5.80;99.90